createdAt,value
2018-07-10T00:02:39.633Z,11.30
2018-07-10T00:05:33.820Z,11.10
2018-07-10T00:09:15.977Z,11.67
2018-07-10T00:11:44.511Z,10.07
2018-07-10T00:14:13.106Z,10.87
2018-07-10T00:16:41.325Z,10.13
2018-07-10T00:19:09.834Z,9.07
2018-07-10T00:21:38.282Z,8.83
2018-07-10T00:24:06.767Z,9.07
2018-07-10T00:26:35.441Z,7.53
2018-07-10T00:29:03.953Z,8.00
2018-07-10T00:31:32.471Z,6.70
2018-07-10T00:34:01.120Z,5.87
2018-07-10T00:36:29.641Z,6.77
2018-07-10T00:39:00.923Z,5.73
2018-07-10T00:41:33.396Z,5.80
2018-07-10T00:44:02.669Z,5.93
2018-07-10T00:46:32.457Z,6.03
2018-07-10T00:49:01.058Z,5.43
2018-07-10T00:51:30.346Z,6.20
2018-07-10T00:53:58.580Z,6.20
2018-07-10T00:56:27.050Z,6.40
2018-07-10T00:58:56.361Z,6.10
2018-07-10T01:01:25.681Z,4.70
2018-07-10T01:03:54.194Z,4.53
2018-07-10T01:06:22.958Z,4.20
2018-07-10T01:08:51.480Z,5.13
2018-07-10T01:11:20.742Z,4.80
2018-07-10T01:13:50.075Z,5.47
2018-07-10T01:16:34.798Z,6.40
2018-07-10T01:19:12.338Z,6.13
2018-07-10T01:21:41.406Z,6.37
2018-07-10T01:24:09.932Z,5.90
2018-07-10T01:26:40.024Z,6.17
2018-07-10T01:29:16.942Z,7.13
2018-07-10T01:31:46.406Z,7.30
2018-07-10T01:34:15.558Z,7.50
2018-07-10T01:36:44.058Z,8.23
2018-07-10T01:39:12.536Z,8.07
2018-07-10T01:41:41.041Z,9.17
2018-07-10T01:44:09.578Z,8.07
2018-07-10T01:46:38.065Z,10.90
2018-07-10T01:49:06.639Z,9.10
2018-07-10T01:51:35.645Z,9.50
2018-07-10T01:54:03.882Z,8.40
2018-07-10T01:56:32.644Z,8.97
2018-07-10T01:59:01.502Z,8.33
2018-07-10T02:01:29.986Z,8.37
2018-07-10T02:03:59.458Z,8.50
2018-07-10T02:06:28.155Z,9.60
2018-07-10T02:08:57.165Z,9.43
2018-07-10T02:11:25.831Z,9.67
2018-07-10T02:13:54.421Z,8.93
2018-07-10T02:16:24.035Z,8.17
2018-07-10T02:18:52.558Z,7.83
2018-07-10T02:21:21.311Z,7.03
2018-07-10T02:23:50.023Z,8.03
2018-07-10T02:26:23.266Z,8.03
2018-07-10T02:28:53.020Z,9.40
2018-07-10T02:31:21.582Z,8.43
2018-07-10T02:33:50.657Z,8.57
2018-07-10T02:36:19.724Z,8.80
2018-07-10T02:38:50.292Z,8.70
2018-07-10T02:41:19.891Z,10.73
2018-07-10T02:43:56.338Z,9.10
2018-07-10T02:46:24.545Z,9.20
2018-07-10T02:48:54.126Z,10.30
2018-07-10T02:51:22.685Z,9.57
2018-07-10T02:53:51.201Z,9.00
2018-07-10T02:56:20.830Z,9.80
2018-07-10T02:58:50.726Z,9.73
2018-07-10T03:01:19.651Z,10.50
2018-07-10T03:03:49.194Z,10.57
2018-07-10T03:06:17.774Z,10.57
2018-07-10T03:08:46.837Z,9.47
2018-07-10T03:11:15.315Z,9.10
2018-07-10T03:13:43.876Z,10.03
2018-07-10T03:16:12.674Z,9.03
2018-07-10T03:18:41.342Z,9.67
2018-07-10T03:21:09.857Z,9.30
2018-07-10T03:23:38.358Z,9.50
2018-07-10T03:26:06.846Z,8.77
2018-07-10T03:28:35.362Z,7.90
2018-07-10T03:31:03.845Z,8.50
2018-07-10T03:33:32.322Z,8.73
2018-07-10T03:36:00.869Z,8.47
2018-07-10T03:38:29.741Z,8.03
2018-07-10T03:40:58.258Z,8.30
2018-07-10T03:43:27.849Z,7.30
2018-07-10T03:45:56.702Z,7.43
2018-07-10T03:48:26.249Z,6.97
2018-07-10T03:50:55.181Z,7.50
2018-07-10T03:53:24.138Z,6.50
2018-07-10T03:55:52.638Z,6.70
2018-07-10T03:58:21.446Z,7.63
2018-07-10T04:00:49.958Z,6.73
2018-07-10T04:03:29.278Z,6.10
2018-07-10T04:05:57.974Z,6.10
2018-07-10T04:08:26.486Z,7.30
2018-07-10T04:10:55.133Z,7.90
2018-07-10T04:13:23.779Z,6.90
2018-07-10T04:15:59.237Z,6.87
2018-07-10T04:18:31.825Z,5.40
2018-07-10T04:21:34.933Z,6.30
2018-07-10T04:24:20.948Z,5.30
2018-07-10T04:27:04.297Z,6.50
2018-07-10T04:29:37.671Z,5.67
2018-07-10T04:32:09.017Z,4.80
2018-07-10T04:34:37.631Z,4.10
2018-07-10T04:37:10.119Z,4.20
2018-07-10T04:39:40.439Z,3.70
2018-07-10T04:42:25.884Z,4.60
2018-07-10T04:44:58.401Z,3.90
2018-07-10T04:47:32.886Z,4.57
2018-07-10T04:50:09.462Z,3.50
2018-07-10T04:52:40.574Z,4.10
2018-07-10T04:55:11.650Z,3.60
2018-07-10T04:58:01.618Z,4.10
2018-07-10T05:00:31.094Z,3.50
2018-07-10T05:03:00.753Z,3.90
2018-07-10T05:05:31.476Z,5.50
2018-07-10T05:08:01.225Z,3.37
2018-07-10T05:10:31.385Z,4.00
2018-07-10T05:12:59.522Z,5.30
2018-07-10T05:15:28.095Z,3.87
2018-07-10T05:17:59.194Z,4.13
2018-07-10T05:20:28.165Z,5.37
2018-07-10T05:22:56.822Z,5.30
2018-07-10T05:25:25.339Z,5.47
2018-07-10T05:27:53.879Z,6.17
2018-07-10T05:30:22.389Z,5.23
2018-07-10T05:32:50.552Z,7.13
2018-07-10T05:35:19.296Z,5.30
2018-07-10T05:37:49.233Z,4.90
2018-07-10T05:40:23.810Z,6.07
2018-07-10T05:42:52.342Z,5.70
2018-07-10T05:45:24.761Z,5.43
2018-07-10T05:47:57.421Z,5.07
2018-07-10T05:50:29.022Z,5.50
2018-07-10T05:52:57.539Z,4.80
2018-07-10T05:55:30.317Z,4.20
2018-07-10T05:58:00.158Z,5.13
2018-07-10T06:00:30.394Z,3.83
2018-07-10T06:02:58.889Z,4.20
2018-07-10T06:05:28.262Z,4.23
2018-07-10T06:07:57.610Z,3.83
2018-07-10T06:10:26.164Z,4.83
2018-07-10T06:12:55.731Z,4.17
2018-07-10T06:15:24.277Z,3.60
2018-07-10T06:17:52.794Z,4.27
2018-07-10T06:20:21.342Z,3.90
2018-07-10T06:22:50.466Z,4.83
2018-07-10T06:25:19.041Z,4.60
2018-07-10T06:27:59.429Z,5.20
2018-07-10T06:30:28.022Z,4.03
2018-07-10T06:33:04.527Z,4.57
2018-07-10T06:36:40.110Z,4.10
2018-07-10T06:39:11.556Z,4.10
2018-07-10T06:41:47.034Z,3.77
2018-07-10T06:44:17.543Z,3.57
2018-07-10T06:46:48.066Z,2.97
2018-07-10T06:49:26.897Z,2.90
2018-07-10T06:52:19.936Z,2.53
2018-07-10T06:54:56.871Z,2.20
2018-07-10T06:57:32.145Z,2.13
2018-07-10T07:00:05.907Z,1.70
2018-07-10T07:02:36.006Z,1.70
2018-07-10T07:05:05.007Z,2.23
2018-07-10T07:07:35.059Z,2.07
2018-07-10T07:10:10.125Z,2.57
2018-07-10T07:12:39.457Z,2.00
2018-07-10T07:15:11.494Z,2.07
2018-07-10T07:17:43.259Z,1.27
2018-07-10T07:20:11.769Z,1.93
2018-07-10T07:22:40.206Z,1.73
2018-07-10T07:25:08.944Z,1.87
2018-07-10T07:27:37.501Z,1.43
2018-07-10T07:30:06.572Z,1.90
2018-07-10T07:32:35.118Z,1.30
2018-07-10T07:35:03.616Z,1.53
2018-07-10T07:37:34.167Z,1.50
2018-07-10T07:40:02.681Z,1.50
2018-07-10T07:42:31.202Z,1.60
2018-07-10T07:44:59.690Z,1.40
2018-07-10T07:47:29.157Z,1.37
2018-07-10T07:49:57.686Z,1.30
2018-07-10T07:52:29.084Z,2.00
2018-07-10T07:54:58.450Z,1.40
2018-07-10T07:57:27.575Z,1.50
2018-07-10T07:59:56.193Z,1.87
2018-07-10T08:02:25.155Z,1.60
2018-07-10T08:04:53.918Z,1.40
2018-07-10T08:07:23.638Z,1.70
2018-07-10T08:09:53.579Z,1.40
2018-07-10T08:12:22.285Z,1.70
2018-07-10T08:14:51.426Z,1.10
2018-07-10T08:17:20.429Z,1.60
2018-07-10T08:19:56.554Z,1.40
2018-07-10T08:22:26.999Z,1.50
2018-07-10T08:24:55.590Z,2.13
2018-07-10T08:27:25.110Z,1.70
2018-07-10T08:29:54.244Z,1.50
2018-07-10T08:32:22.842Z,1.27
2018-07-10T08:34:51.366Z,1.70
2018-07-10T08:37:19.838Z,2.20
2018-07-10T08:39:48.351Z,1.27
2018-07-10T08:42:18.018Z,1.43
2018-07-10T08:44:46.739Z,1.20
2018-07-10T08:47:15.354Z,1.50
2018-07-10T08:49:43.870Z,1.13
2018-07-10T08:52:13.384Z,0.97
2018-07-10T08:54:41.930Z,1.20
2018-07-10T08:57:10.466Z,1.77
2018-07-10T08:59:39.425Z,1.20
2018-07-10T09:02:07.981Z,1.23
2018-07-10T09:04:36.499Z,1.20
2018-07-10T09:07:05.933Z,0.93
2018-07-10T09:09:34.521Z,1.80
2018-07-10T09:12:03.225Z,1.10
2018-07-10T09:14:31.765Z,1.43
2018-07-10T09:17:00.384Z,1.53
2018-07-10T09:19:30.222Z,1.33
2018-07-10T09:22:05.518Z,1.40
2018-07-10T09:24:36.670Z,1.60
2018-07-10T09:27:09.229Z,1.47
2018-07-10T09:29:38.880Z,2.03
2018-07-10T09:32:07.863Z,1.27
2018-07-10T09:34:36.365Z,2.10
2018-07-10T09:37:09.225Z,1.63
2018-07-10T09:39:37.853Z,2.20
2018-07-10T09:42:06.694Z,2.67
2018-07-10T09:44:35.286Z,6.40
2018-07-10T09:47:03.858Z,3.87
2018-07-10T09:49:32.353Z,5.43
2018-07-10T09:52:00.914Z,1.60
2018-07-10T09:54:29.837Z,1.10
2018-07-10T09:56:58.402Z,1.30
2018-07-10T09:59:26.958Z,1.20
2018-07-10T10:02:00.483Z,2.20
2018-07-10T10:04:30.006Z,1.87
2018-07-10T10:06:58.527Z,1.67
2018-07-10T10:09:27.102Z,1.70
2018-07-10T10:11:55.646Z,1.80
2018-07-10T10:14:24.229Z,1.10
2018-07-10T10:16:52.877Z,1.77
2018-07-10T10:19:21.563Z,1.80
2018-07-10T10:21:50.071Z,1.90
2018-07-10T10:24:18.593Z,1.20
2018-07-10T10:26:47.166Z,1.30
2018-07-10T10:29:15.686Z,1.60
2018-07-10T10:31:44.206Z,2.40
2018-07-10T10:34:12.719Z,1.90
2018-07-10T10:36:41.175Z,2.17
2018-07-10T10:39:09.942Z,2.40
2018-07-10T10:41:39.193Z,2.90
2018-07-10T10:44:07.731Z,2.23
2018-07-10T10:46:36.275Z,2.30
2018-07-10T10:49:04.794Z,2.73
2018-07-10T10:51:33.790Z,2.90
2018-07-10T10:54:02.580Z,2.67
2018-07-10T10:56:31.200Z,3.70
2018-07-10T10:58:59.858Z,3.17
2018-07-10T11:01:29.150Z,3.10
2018-07-10T11:03:58.614Z,3.63
2018-07-10T11:06:28.848Z,3.60
2018-07-10T11:08:58.235Z,3.80
2018-07-10T11:11:27.986Z,3.80
2018-07-10T11:13:56.557Z,3.70
2018-07-10T11:16:25.130Z,3.57
2018-07-10T11:19:03.234Z,3.50
2018-07-10T11:21:44.032Z,4.10
2018-07-10T11:24:15.612Z,3.27
2018-07-10T11:26:45.265Z,3.07
2018-07-10T11:29:14.702Z,3.10
2018-07-10T11:31:43.266Z,2.77
2018-07-10T11:34:11.773Z,2.33
2018-07-10T11:36:40.273Z,3.07
2018-07-10T11:39:11.585Z,2.27
2018-07-10T11:41:46.837Z,2.33
2018-07-10T11:44:15.310Z,2.10
2018-07-10T11:46:43.870Z,2.20
2018-07-10T11:49:12.423Z,1.90
2018-07-10T11:51:40.960Z,2.00
2018-07-10T11:54:09.546Z,2.00
2018-07-10T11:56:38.190Z,2.37
2018-07-10T11:59:06.830Z,2.30
2018-07-10T12:01:36.580Z,1.90
2018-07-10T12:04:05.559Z,1.70
2018-07-10T12:06:43.889Z,1.70
2018-07-10T12:09:12.471Z,1.93
2018-07-10T12:11:41.103Z,1.57
2018-07-10T12:14:09.645Z,1.93
2018-07-10T12:16:38.137Z,1.97
2018-07-10T12:19:06.678Z,1.60
2018-07-10T12:21:35.162Z,1.87
2018-07-10T12:24:04.646Z,1.73
2018-07-10T12:26:33.182Z,1.60
2018-07-10T12:29:01.898Z,1.23
2018-07-10T12:31:30.412Z,2.40
2018-07-10T12:33:58.949Z,2.30
2018-07-10T12:36:27.446Z,1.77
2018-07-10T12:38:56.870Z,1.70
2018-07-10T12:41:25.386Z,1.23
2018-07-10T12:43:53.921Z,1.63
2018-07-10T12:46:22.446Z,1.87
2018-07-10T12:48:51.074Z,1.30
2018-07-10T12:51:19.557Z,2.20
2018-07-10T12:53:48.222Z,2.10
2018-07-10T12:56:17.653Z,1.50
2018-07-10T12:58:46.160Z,1.50
2018-07-10T13:01:14.768Z,1.90
2018-07-10T13:03:43.975Z,1.90
2018-07-10T13:06:12.609Z,2.60
2018-07-10T13:08:41.129Z,1.90
2018-07-10T13:11:09.717Z,1.70
2018-07-10T13:13:38.247Z,1.90
2018-07-10T13:16:06.897Z,2.20
2018-07-10T13:18:35.534Z,2.37
2018-07-10T13:21:04.098Z,1.87
2018-07-10T13:23:32.626Z,2.07
2018-07-10T13:26:01.195Z,1.93
2018-07-10T13:28:29.710Z,1.80
2018-07-10T13:30:58.213Z,1.83
2018-07-10T13:33:26.718Z,1.80
2018-07-10T13:35:55.266Z,1.80
2018-07-10T13:38:24.390Z,1.60
2018-07-10T13:40:54.474Z,1.97
2018-07-10T13:43:23.178Z,2.30
2018-07-10T13:45:51.665Z,2.13
2018-07-10T13:48:20.234Z,1.90
2018-07-10T13:50:48.744Z,1.80
2018-07-10T13:53:17.346Z,2.20
2018-07-10T13:55:45.902Z,2.40
2018-07-10T13:58:18.202Z,2.60
2018-07-10T14:00:54.245Z,2.50
2018-07-10T14:03:23.629Z,2.70
2018-07-10T14:05:52.134Z,2.40
2018-07-10T14:08:20.295Z,2.60
2018-07-10T14:10:48.959Z,2.70
2018-07-10T14:13:17.459Z,3.67
2018-07-10T14:15:45.721Z,2.77
2018-07-10T14:18:14.703Z,4.17
2018-07-10T14:20:49.000Z,3.47
2018-07-10T14:23:17.525Z,4.13
2018-07-10T14:25:46.464Z,5.00
2018-07-10T14:28:15.098Z,4.57
2018-07-10T14:30:43.569Z,3.50
2018-07-10T14:33:12.083Z,4.00
2018-07-10T14:35:40.624Z,4.00
2018-07-10T14:38:10.261Z,4.40
2018-07-10T14:40:43.562Z,4.70
2018-07-10T14:43:14.585Z,3.80
2018-07-10T14:45:43.114Z,4.60
2018-07-10T14:48:11.762Z,4.97
2018-07-10T14:50:40.318Z,4.87
2018-07-10T14:53:08.830Z,5.03
2018-07-10T14:55:38.363Z,4.50
2018-07-10T14:58:06.929Z,5.67
2018-07-10T15:00:35.607Z,5.03
2018-07-10T15:03:04.176Z,5.63
2018-07-10T15:05:32.770Z,6.00
2018-07-10T15:08:01.543Z,6.07
2018-07-10T15:10:30.174Z,6.37
2018-07-10T15:12:58.782Z,6.40
2018-07-10T15:15:27.344Z,5.83
2018-07-10T15:18:01.046Z,6.23
2018-07-10T15:20:29.532Z,6.00
2018-07-10T15:22:59.049Z,7.10
2018-07-10T15:25:27.578Z,6.30
2018-07-10T15:27:57.101Z,7.10
2018-07-10T15:30:25.680Z,5.73
2018-07-10T15:32:54.337Z,6.10
2018-07-10T15:35:23.906Z,6.67
2018-07-10T15:37:52.566Z,6.93
2018-07-10T15:40:21.178Z,6.50
2018-07-10T15:42:49.923Z,6.20
2018-07-10T15:45:18.620Z,6.10
2018-07-10T15:47:47.727Z,6.50
2018-07-10T15:50:16.378Z,5.43
2018-07-10T15:52:44.884Z,5.67
2018-07-10T15:55:13.524Z,6.43
2018-07-10T15:57:42.086Z,6.03
2018-07-10T16:00:10.558Z,7.40
2018-07-10T16:02:39.893Z,6.63
2018-07-10T16:05:08.890Z,6.50
2018-07-10T16:07:37.598Z,5.97
2018-07-10T16:10:06.127Z,6.17
2018-07-10T16:12:35.692Z,6.97
2018-07-10T16:15:04.325Z,7.60
2018-07-10T16:17:33.535Z,8.00
2018-07-10T16:20:06.930Z,7.30
2018-07-10T16:22:36.415Z,7.03
2018-07-10T16:25:39.087Z,7.50
2018-07-10T16:28:12.417Z,7.57
2018-07-10T16:30:41.012Z,8.30
2018-07-10T16:33:10.878Z,6.67
2018-07-10T16:35:39.381Z,8.23
2018-07-10T16:38:07.888Z,6.17
2018-07-10T16:40:36.381Z,6.70
2018-07-10T16:43:09.113Z,6.67
2018-07-10T16:45:39.641Z,6.10
2018-07-10T16:48:21.106Z,6.90
2018-07-10T16:51:03.950Z,7.13
2018-07-10T16:53:34.327Z,7.23
2018-07-10T16:56:02.980Z,6.47
2018-07-10T16:58:34.941Z,5.97
2018-07-10T17:01:03.878Z,5.60
2018-07-10T17:03:32.422Z,6.30
2018-07-10T17:06:01.048Z,6.20
2018-07-10T17:08:29.501Z,6.27
2018-07-10T17:10:58.006Z,6.77
2018-07-10T17:13:26.602Z,6.80
2018-07-10T17:15:54.754Z,7.53
2018-07-10T17:18:23.303Z,7.47
2018-07-10T17:20:51.846Z,8.00
2018-07-10T17:23:20.366Z,7.73
2018-07-10T17:25:48.926Z,8.07
2018-07-10T17:28:19.261Z,6.83
2018-07-10T17:30:47.791Z,8.10
2018-07-10T17:33:16.289Z,6.93
2018-07-10T17:35:44.818Z,7.83
2018-07-10T17:38:13.332Z,7.57
2018-07-10T17:40:41.852Z,7.57
2018-07-10T17:43:10.376Z,6.57
2018-07-10T17:45:38.965Z,6.80
2018-07-10T17:48:07.610Z,7.40
2018-07-10T17:50:36.138Z,7.20
2018-07-10T17:53:04.702Z,8.27
2018-07-10T17:55:33.792Z,7.90
2018-07-10T17:58:03.938Z,7.63
2018-07-10T18:00:33.020Z,7.50
2018-07-10T18:03:01.543Z,7.97
2018-07-10T18:05:30.225Z,8.80
2018-07-10T18:07:58.774Z,7.73
2018-07-10T18:10:27.377Z,7.30
2018-07-10T18:13:04.730Z,7.63
2018-07-10T18:15:33.307Z,7.50
2018-07-10T18:18:02.056Z,9.97
2018-07-10T18:20:30.918Z,10.63
2018-07-10T18:22:59.731Z,10.80
2018-07-10T18:25:28.477Z,11.90
2018-07-10T18:27:57.750Z,12.10
2018-07-10T18:30:26.585Z,11.10
2018-07-10T18:33:00.170Z,14.30
2018-07-10T18:35:29.432Z,15.47
2018-07-10T18:37:58.223Z,13.93
2018-07-10T18:40:27.614Z,16.63
2018-07-10T18:42:56.361Z,19.07
2018-07-10T18:45:26.106Z,17.10
2018-07-10T18:47:54.957Z,8.20
2018-07-10T18:50:23.997Z,9.80
2018-07-10T18:52:55.496Z,8.70
2018-07-10T18:55:24.734Z,9.77
2018-07-10T18:58:05.809Z,9.67
2018-07-10T19:01:43.074Z,10.47
2018-07-10T19:04:12.754Z,9.97
2018-07-10T19:06:41.593Z,10.63
2018-07-10T19:09:20.058Z,11.70
2018-07-10T19:11:48.928Z,10.57
2018-07-10T19:14:17.880Z,10.53
2018-07-10T19:16:46.669Z,10.67
2018-07-10T19:19:15.718Z,11.90
2018-07-10T19:21:49.052Z,9.93
2018-07-10T19:24:18.269Z,9.07
2018-07-10T19:26:48.542Z,10.57
2018-07-10T19:29:23.680Z,10.07
2018-07-10T19:31:52.855Z,8.50
2018-07-10T19:34:21.860Z,9.90
2018-07-10T19:36:50.655Z,8.70
2018-07-10T19:39:19.573Z,7.23
2018-07-10T19:41:48.373Z,9.20
2018-07-10T19:44:16.890Z,6.30
2018-07-10T19:46:45.562Z,5.70
2018-07-10T19:49:16.963Z,5.63
2018-07-10T19:51:48.619Z,5.90
2018-07-10T19:54:17.403Z,5.77
2018-07-10T19:56:46.011Z,5.10
2018-07-10T19:59:15.150Z,5.47
2018-07-10T20:01:52.569Z,5.13
2018-07-10T20:05:29.455Z,6.03
2018-07-10T20:08:00.647Z,4.83
2018-07-10T20:10:36.055Z,5.50
2018-07-10T20:13:12.790Z,5.53
2018-07-10T20:16:02.097Z,6.00
2018-07-10T20:18:38.017Z,5.50
2018-07-10T20:21:13.266Z,6.00
2018-07-10T20:23:48.755Z,4.83
2018-07-10T20:28:31.201Z,6.33
2018-07-10T20:31:07.891Z,7.90
2018-07-10T20:34:02.953Z,6.20
2018-07-10T20:36:31.538Z,6.57
2018-07-10T20:39:00.541Z,7.00
2018-07-10T20:41:47.758Z,8.07
2018-07-10T20:44:18.650Z,8.20
2018-07-10T20:46:51.387Z,8.87
2018-07-10T20:49:28.051Z,8.10
2018-07-10T20:52:03.367Z,7.47
2018-07-10T20:55:07.269Z,7.23
2018-07-10T20:57:42.920Z,7.50
2018-07-10T21:00:14.336Z,7.10
2018-07-10T21:02:53.804Z,6.83
2018-07-10T21:05:38.203Z,6.87
2018-07-10T21:08:15.512Z,7.53
2018-07-10T21:10:51.019Z,8.05
2018-07-10T21:13:43.287Z,8.80
2018-07-10T21:17:26.569Z,8.20
2018-07-10T21:20:00.851Z,7.50
2018-07-10T21:23:40.137Z,7.83
2018-07-10T21:27:23.158Z,7.77
2018-07-10T21:29:55.703Z,8.50
2018-07-10T21:32:35.134Z,8.83
2018-07-10T21:35:07.969Z,8.70
2018-07-10T21:37:50.378Z,8.57
2018-07-10T21:40:27.331Z,7.90
2018-07-10T21:43:06.794Z,8.03
2018-07-10T21:45:46.635Z,9.53
2018-07-10T21:48:35.487Z,9.87
2018-07-10T21:51:03.990Z,9.20
2018-07-10T21:53:32.611Z,10.47
2018-07-10T21:56:01.151Z,7.70
2018-07-10T21:58:30.091Z,8.53
2018-07-10T22:02:03.562Z,8.88
2018-07-10T22:04:35.798Z,8.20
2018-07-10T22:07:05.660Z,7.77
2018-07-10T22:09:37.532Z,9.30
2018-07-10T22:12:08.036Z,8.48
2018-07-10T22:14:36.664Z,9.00
2018-07-10T22:17:08.953Z,9.15
2018-07-10T22:19:41.115Z,7.05
2018-07-10T22:22:09.736Z,7.90
2018-07-10T22:24:39.259Z,7.53
2018-07-10T22:27:07.831Z,6.65
2018-07-10T22:29:41.930Z,9.25
2018-07-10T22:33:15.002Z,8.30
2018-07-10T22:35:44.288Z,8.80
2018-07-10T22:38:14.003Z,11.73
2018-07-10T22:40:42.687Z,13.30
2018-07-10T22:43:11.827Z,12.53
2018-07-10T22:45:41.022Z,10.58
2018-07-10T22:48:10.141Z,11.85
2018-07-10T22:50:39.503Z,11.43
2018-07-10T22:53:09.260Z,11.43
2018-07-10T22:55:38.885Z,11.55
2018-07-10T22:58:08.778Z,11.05
2018-07-10T23:00:40.267Z,10.90
2018-07-10T23:03:17.843Z,9.03
2018-07-10T23:05:48.429Z,9.30
2018-07-10T23:08:19.976Z,9.63
2018-07-10T23:10:49.917Z,8.10
2018-07-10T23:13:21.350Z,9.93
2018-07-10T23:15:51.722Z,6.92
2018-07-10T23:18:22.169Z,9.08
2018-07-10T23:20:51.993Z,9.63
2018-07-10T23:23:21.889Z,9.83
2018-07-10T23:25:51.312Z,8.03
2018-07-10T23:28:21.538Z,7.47
2018-07-10T23:30:51.593Z,8.93
2018-07-10T23:33:22.070Z,6.03
2018-07-10T23:35:56.655Z,6.50
2018-07-10T23:39:39.072Z,8.13
2018-07-10T23:42:10.246Z,6.55
2018-07-10T23:44:45.893Z,7.40
2018-07-10T23:47:33.542Z,7.87
2018-07-10T23:50:15.274Z,8.43
2018-07-10T23:52:56.202Z,7.70
2018-07-10T23:55:25.364Z,7.85
2018-07-10T23:57:54.667Z,8.40
